sensor_id;sensor_type;location;lat;lon;timestamp;P1;durP1;ratioP1;P2;durP2;ratioP2
26654;SDS011;14278;50.784;4.630;2024-01-15T00:01:56;8.27;;;6.40;;
26654;SDS011;14278;50.784;4.630;2024-01-15T00:04:22;12.53;;;6.07;;
26654;SDS011;14278;50.784;4.630;2024-01-15T00:06:48;16.63;;;5.87;;
26654;SDS011;14278;50.784;4.630;2024-01-15T00:09:15;14.30;;;5.73;;
26654;SDS011;14278;50.784;4.630;2024-01-15T00:11:40;12.93;;;5.60;;
26654;SDS011;14278;50.784;4.630;2024-01-15T00:14:07;18.13;;;6.80;;
26654;SDS011;14278;50.784;4.630;2024-01-15T00:16:33;14.40;;;6.87;;
26654;SDS011;14278;50.784;4.630;2024-01-15T00:18:58;12.77;;;4.97;;
26654;SDS011;14278;50.784;4.630;2024-01-15T00:21:24;15.13;;;5.40;;
26654;SDS011;14278;50.784;4.630;2024-01-15T00:23:49;15.80;;;5.43;;
26654;SDS011;14278;50.784;4.630;2024-01-15T00:26:15;19.00;;;7.27;;
26654;SDS011;14278;50.784;4.630;2024-01-15T00:28:41;13.33;;;6.40;;
26654;SDS011;14278;50.784;4.630;2024-01-15T00:31:07;15.73;;;7.57;;
26654;SDS011;14278;50.784;4.630;2024-01-15T00:33:33;8.33;;;5.63;;
26654;SDS011;14278;50.784;4.630;2024-01-15T00:35:59;13.33;;;6.23;;
26654;SDS011;14278;50.784;4.630;2024-01-15T00:38:24;10.87;;;6.03;;
26654;SDS011;14278;50.784;4.630;2024-01-15T00:40:50;10.77;;;5.97;;
26654;SDS011;14278;50.784;4.630;2024-01-15T00:43:15;16.07;;;7.93;;
26654;SDS011;14278;50.784;4.630;2024-01-15T00:45:44;11.17;;;5.57;;
26654;SDS011;14278;50.784;4.630;2024-01-15T00:48:09;5.83;;;4.17;;
26654;SDS011;14278;50.784;4.630;2024-01-15T00:50:35;11.60;;;6.47;;
26654;SDS011;14278;50.784;4.630;2024-01-15T00:53:01;8.90;;;4.20;;
26654;SDS011;14278;50.784;4.630;2024-01-15T00:55:28;11.30;;;4.10;;
26654;SDS011;14278;50.784;4.630;2024-01-15T00:57:54;9.03;;;5.63;;
26654;SDS011;14278;50.784;4.630;2024-01-15T01:00:20;13.43;;;6.77;;
26654;SDS011;14278;50.784;4.630;2024-01-15T01:02:46;10.47;;;4.90;;
26654;SDS011;14278;50.784;4.630;2024-01-15T01:05:11;14.83;;;5.07;;
26654;SDS011;14278;50.784;4.630;2024-01-15T01:07:37;8.67;;;4.70;;
26654;SDS011;14278;50.784;4.630;2024-01-15T01:10:03;10.47;;;5.67;;
26654;SDS011;14278;50.784;4.630;2024-01-15T01:12:29;10.33;;;4.97;;
26654;SDS011;14278;50.784;4.630;2024-01-15T01:14:55;8.63;;;4.67;;
26654;SDS011;14278;50.784;4.630;2024-01-15T01:17:21;6.50;;;4.37;;
26654;SDS011;14278;50.784;4.630;2024-01-15T01:19:47;9.07;;;5.00;;
26654;SDS011;14278;50.784;4.630;2024-01-15T01:22:12;6.43;;;4.20;;
26654;SDS011;14278;50.784;4.630;2024-01-15T01:24:38;7.27;;;3.97;;
26654;SDS011;14278;50.784;4.630;2024-01-15T01:27:04;4.47;;;3.60;;
26654;SDS011;14278;50.784;4.630;2024-01-15T01:29:29;7.43;;;3.80;;
26654;SDS011;14278;50.784;4.630;2024-01-15T01:31:55;9.20;;;4.47;;
26654;SDS011;14278;50.784;4.630;2024-01-15T01:34:21;5.20;;;3.33;;
26654;SDS011;14278;50.784;4.630;2024-01-15T01:36:47;19.10;;;4.10;;
26654;SDS011;14278;50.784;4.630;2024-01-15T01:39:13;5.53;;;3.33;;
26654;SDS011;14278;50.784;4.630;2024-01-15T01:41:39;6.07;;;3.47;;
26654;SDS011;14278;50.784;4.630;2024-01-15T01:44:05;7.37;;;3.83;;
26654;SDS011;14278;50.784;4.630;2024-01-15T01:46:31;5.07;;;3.10;;
26654;SDS011;14278;50.784;4.630;2024-01-15T01:48:56;7.83;;;4.07;;
26654;SDS011;14278;50.784;4.630;2024-01-15T01:51:23;9.07;;;3.43;;
26654;SDS011;14278;50.784;4.630;2024-01-15T01:53:50;6.00;;;2.63;;
26654;SDS011;14278;50.784;4.630;2024-01-15T01:56:16;6.73;;;3.90;;
26654;SDS011;14278;50.784;4.630;2024-01-15T01:58:43;8.90;;;4.47;;
26654;SDS011;14278;50.784;4.630;2024-01-15T02:01:10;5.93;;;3.70;;
26654;SDS011;14278;50.784;4.630;2024-01-15T02:03:37;5.00;;;2.93;;
26654;SDS011;14278;50.784;4.630;2024-01-15T02:06:04;4.83;;;3.20;;
26654;SDS011;14278;50.784;4.630;2024-01-15T02:08:30;8.23;;;3.37;;
26654;SDS011;14278;50.784;4.630;2024-01-15T02:10:56;5.20;;;4.07;;
26654;SDS011;14278;50.784;4.630;2024-01-15T02:13:22;9.03;;;5.13;;
26654;SDS011;14278;50.784;4.630;2024-01-15T02:15:48;6.07;;;4.03;;
26654;SDS011;14278;50.784;4.630;2024-01-15T02:18:14;9.73;;;3.87;;
26654;SDS011;14278;50.784;4.630;2024-01-15T02:20:39;3.90;;;3.03;;
26654;SDS011;14278;50.784;4.630;2024-01-15T02:23:09;3.27;;;2.40;;
26654;SDS011;14278;50.784;4.630;2024-01-15T02:25:36;4.57;;;3.33;;
26654;SDS011;14278;50.784;4.630;2024-01-15T02:28:07;9.27;;;3.33;;
26654;SDS011;14278;50.784;4.630;2024-01-15T02:30:38;7.00;;;2.13;;
26654;SDS011;14278;50.784;4.630;2024-01-15T02:33:05;4.63;;;2.77;;
26654;SDS011;14278;50.784;4.630;2024-01-15T02:35:34;7.67;;;3.83;;
26654;SDS011;14278;50.784;4.630;2024-01-15T02:38:06;6.30;;;2.93;;
26654;SDS011;14278;50.784;4.630;2024-01-15T02:40:33;6.03;;;2.80;;
26654;SDS011;14278;50.784;4.630;2024-01-15T02:42:59;5.30;;;3.07;;
26654;SDS011;14278;50.784;4.630;2024-01-15T02:45:25;4.57;;;3.00;;
26654;SDS011;14278;50.784;4.630;2024-01-15T02:47:50;4.47;;;3.57;;
26654;SDS011;14278;50.784;4.630;2024-01-15T02:50:16;5.03;;;2.70;;
26654;SDS011;14278;50.784;4.630;2024-01-15T02:52:42;3.33;;;2.87;;
26654;SDS011;14278;50.784;4.630;2024-01-15T02:55:08;6.60;;;3.87;;
26654;SDS011;14278;50.784;4.630;2024-01-15T02:57:34;5.73;;;3.43;;
26654;SDS011;14278;50.784;4.630;2024-01-15T03:00:00;6.70;;;3.03;;
26654;SDS011;14278;50.784;4.630;2024-01-15T03:02:26;3.10;;;2.00;;
26654;SDS011;14278;50.784;4.630;2024-01-15T03:04:51;3.17;;;2.87;;
26654;SDS011;14278;50.784;4.630;2024-01-15T03:07:17;2.40;;;2.20;;
26654;SDS011;14278;50.784;4.630;2024-01-15T03:09:43;2.83;;;2.63;;
26654;SDS011;14278;50.784;4.630;2024-01-15T03:12:09;7.40;;;3.13;;
26654;SDS011;14278;50.784;4.630;2024-01-15T03:14:36;3.40;;;2.70;;
26654;SDS011;14278;50.784;4.630;2024-01-15T03:17:01;3.90;;;2.60;;
26654;SDS011;14278;50.784;4.630;2024-01-15T03:19:27;5.07;;;3.17;;
26654;SDS011;14278;50.784;4.630;2024-01-15T03:21:53;5.33;;;3.47;;
26654;SDS011;14278;50.784;4.630;2024-01-15T03:24:20;6.57;;;3.23;;
26654;SDS011;14278;50.784;4.630;2024-01-15T03:26:45;6.67;;;4.67;;
26654;SDS011;14278;50.784;4.630;2024-01-15T03:29:11;5.97;;;3.07;;
26654;SDS011;14278;50.784;4.630;2024-01-15T03:31:37;6.43;;;4.60;;
26654;SDS011;14278;50.784;4.630;2024-01-15T03:34:02;7.03;;;4.23;;
26654;SDS011;14278;50.784;4.630;2024-01-15T03:36:28;7.83;;;4.70;;
26654;SDS011;14278;50.784;4.630;2024-01-15T03:38:54;8.27;;;4.97;;
26654;SDS011;14278;50.784;4.630;2024-01-15T03:41:20;6.87;;;5.37;;
26654;SDS011;14278;50.784;4.630;2024-01-15T03:43:45;12.53;;;4.90;;
26654;SDS011;14278;50.784;4.630;2024-01-15T03:46:11;10.40;;;5.37;;
26654;SDS011;14278;50.784;4.630;2024-01-15T03:48:37;12.13;;;4.90;;
26654;SDS011;14278;50.784;4.630;2024-01-15T03:51:03;8.77;;;5.33;;
26654;SDS011;14278;50.784;4.630;2024-01-15T03:53:29;6.83;;;3.83;;
26654;SDS011;14278;50.784;4.630;2024-01-15T03:55:54;5.43;;;3.23;;
26654;SDS011;14278;50.784;4.630;2024-01-15T03:58:20;14.27;;;6.20;;
26654;SDS011;14278;50.784;4.630;2024-01-15T04:00:46;10.97;;;5.40;;
26654;SDS011;14278;50.784;4.630;2024-01-15T04:03:11;9.77;;;5.67;;
26654;SDS011;14278;50.784;4.630;2024-01-15T04:05:37;8.77;;;3.83;;
26654;SDS011;14278;50.784;4.630;2024-01-15T04:08:03;11.03;;;4.43;;
26654;SDS011;14278;50.784;4.630;2024-01-15T04:10:29;7.60;;;5.70;;
26654;SDS011;14278;50.784;4.630;2024-01-15T04:12:55;5.97;;;4.33;;
26654;SDS011;14278;50.784;4.630;2024-01-15T04:15:21;14.50;;;8.17;;
26654;SDS011;14278;50.784;4.630;2024-01-15T04:17:46;13.73;;;6.00;;
26654;SDS011;14278;50.784;4.630;2024-01-15T04:20:12;11.67;;;5.43;;
26654;SDS011;14278;50.784;4.630;2024-01-15T04:22:38;14.27;;;5.83;;
26654;SDS011;14278;50.784;4.630;2024-01-15T04:25:04;11.13;;;5.87;;
26654;SDS011;14278;50.784;4.630;2024-01-15T04:27:30;18.40;;;6.73;;
26654;SDS011;14278;50.784;4.630;2024-01-15T04:29:55;12.27;;;5.57;;
26654;SDS011;14278;50.784;4.630;2024-01-15T04:32:21;14.57;;;7.20;;
26654;SDS011;14278;50.784;4.630;2024-01-15T04:34:47;13.97;;;6.30;;
26654;SDS011;14278;50.784;4.630;2024-01-15T04:37:16;8.87;;;6.03;;
26654;SDS011;14278;50.784;4.630;2024-01-15T04:39:41;11.53;;;6.67;;
26654;SDS011;14278;50.784;4.630;2024-01-15T04:42:07;9.13;;;4.67;;
26654;SDS011;14278;50.784;4.630;2024-01-15T04:44:33;14.43;;;6.70;;
26654;SDS011;14278;50.784;4.630;2024-01-15T04:46:58;11.67;;;6.00;;
26654;SDS011;14278;50.784;4.630;2024-01-15T04:49:24;12.33;;;6.07;;
26654;SDS011;14278;50.784;4.630;2024-01-15T04:51:52;5.93;;;4.97;;
26654;SDS011;14278;50.784;4.630;2024-01-15T04:54:18;8.60;;;5.87;;
26654;SDS011;14278;50.784;4.630;2024-01-15T04:56:44;5.93;;;5.33;;
26654;SDS011;14278;50.784;4.630;2024-01-15T04:59:10;6.80;;;4.30;;
26654;SDS011;14278;50.784;4.630;2024-01-15T05:01:36;8.10;;;5.27;;
26654;SDS011;14278;50.784;4.630;2024-01-15T05:04:01;47.23;;;19.30;;
26654;SDS011;14278;50.784;4.630;2024-01-15T05:06:27;14.80;;;7.57;;
26654;SDS011;14278;50.784;4.630;2024-01-15T05:08:53;13.17;;;5.87;;
26654;SDS011;14278;50.784;4.630;2024-01-15T05:11:19;10.30;;;4.80;;
26654;SDS011;14278;50.784;4.630;2024-01-15T05:13:44;13.60;;;6.27;;
26654;SDS011;14278;50.784;4.630;2024-01-15T05:16:10;8.17;;;4.10;;
26654;SDS011;14278;50.784;4.630;2024-01-15T05:18:36;7.33;;;3.70;;
26654;SDS011;14278;50.784;4.630;2024-01-15T05:21:04;5.40;;;3.90;;
26654;SDS011;14278;50.784;4.630;2024-01-15T05:23:31;9.37;;;4.23;;
26654;SDS011;14278;50.784;4.630;2024-01-15T05:25:59;12.77;;;5.63;;
26654;SDS011;14278;50.784;4.630;2024-01-15T05:28:24;5.50;;;4.37;;
26654;SDS011;14278;50.784;4.630;2024-01-15T05:30:50;4.50;;;3.07;;
26654;SDS011;14278;50.784;4.630;2024-01-15T05:33:16;3.73;;;2.47;;
26654;SDS011;14278;50.784;4.630;2024-01-15T05:35:42;8.80;;;3.10;;
26654;SDS011;14278;50.784;4.630;2024-01-15T05:38:08;3.47;;;3.03;;
26654;SDS011;14278;50.784;4.630;2024-01-15T05:40:34;6.60;;;3.17;;
26654;SDS011;14278;50.784;4.630;2024-01-15T05:42:59;2.03;;;1.77;;
26654;SDS011;14278;50.784;4.630;2024-01-15T05:45:29;2.30;;;2.07;;
26654;SDS011;14278;50.784;4.630;2024-01-15T05:47:55;2.40;;;1.67;;
26654;SDS011;14278;50.784;4.630;2024-01-15T05:50:21;1.87;;;1.43;;
26654;SDS011;14278;50.784;4.630;2024-01-15T05:52:47;1.57;;;0.97;;
26654;SDS011;14278;50.784;4.630;2024-01-15T05:55:34;5.67;;;1.60;;
26654;SDS011;14278;50.784;4.630;2024-01-15T05:58:01;1.70;;;1.60;;
26654;SDS011;14278;50.784;4.630;2024-01-15T06:00:26;5.07;;;2.53;;
26654;SDS011;14278;50.784;4.630;2024-01-15T06:02:52;4.77;;;2.10;;
26654;SDS011;14278;50.784;4.630;2024-01-15T06:05:18;2.07;;;1.87;;
26654;SDS011;14278;50.784;4.630;2024-01-15T06:07:43;3.83;;;1.87;;
26654;SDS011;14278;50.784;4.630;2024-01-15T06:10:13;4.07;;;2.10;;
26654;SDS011;14278;50.784;4.630;2024-01-15T06:12:43;3.27;;;1.50;;
26654;SDS011;14278;50.784;4.630;2024-01-15T06:15:09;4.07;;;1.47;;
26654;SDS011;14278;50.784;4.630;2024-01-15T06:17:35;2.80;;;2.20;;
26654;SDS011;14278;50.784;4.630;2024-01-15T06:20:01;3.23;;;2.20;;
26654;SDS011;14278;50.784;4.630;2024-01-15T06:22:27;5.77;;;2.33;;
26654;SDS011;14278;50.784;4.630;2024-01-15T06:24:52;2.43;;;1.73;;
26654;SDS011;14278;50.784;4.630;2024-01-15T06:27:18;6.37;;;2.30;;
26654;SDS011;14278;50.784;4.630;2024-01-15T06:29:47;3.43;;;1.53;;
26654;SDS011;14278;50.784;4.630;2024-01-15T06:32:30;2.37;;;1.97;;
26654;SDS011;14278;50.784;4.630;2024-01-15T06:34:55;2.17;;;1.97;;
26654;SDS011;14278;50.784;4.630;2024-01-15T06:37:21;1.53;;;1.43;;
26654;SDS011;14278;50.784;4.630;2024-01-15T06:39:47;1.47;;;0.90;;
26654;SDS011;14278;50.784;4.630;2024-01-15T06:42:13;4.57;;;1.80;;
26654;SDS011;14278;50.784;4.630;2024-01-15T06:44:38;2.77;;;1.50;;
26654;SDS011;14278;50.784;4.630;2024-01-15T06:47:05;1.30;;;1.20;;
26654;SDS011;14278;50.784;4.630;2024-01-15T06:49:30;3.70;;;1.67;;
26654;SDS011;14278;50.784;4.630;2024-01-15T06:51:56;1.13;;;0.90;;
26654;SDS011;14278;50.784;4.630;2024-01-15T06:54:22;1.87;;;1.77;;
26654;SDS011;14278;50.784;4.630;2024-01-15T06:56:48;1.37;;;1.27;;
26654;SDS011;14278;50.784;4.630;2024-01-15T06:59:15;3.43;;;2.10;;
26654;SDS011;14278;50.784;4.630;2024-01-15T07:01:40;1.60;;;1.47;;
26654;SDS011;14278;50.784;4.630;2024-01-15T07:04:06;2.37;;;1.50;;
26654;SDS011;14278;50.784;4.630;2024-01-15T07:06:33;1.37;;;1.23;;
26654;SDS011;14278;50.784;4.630;2024-01-15T07:08:58;3.43;;;1.87;;
26654;SDS011;14278;50.784;4.630;2024-01-15T07:11:24;2.67;;;1.47;;
26654;SDS011;14278;50.784;4.630;2024-01-15T07:13:50;6.83;;;2.10;;
26654;SDS011;14278;50.784;4.630;2024-01-15T07:16:16;8.17;;;3.97;;
26654;SDS011;14278;50.784;4.630;2024-01-15T07:18:41;4.87;;;2.53;;
26654;SDS011;14278;50.784;4.630;2024-01-15T07:21:07;4.37;;;2.33;;
26654;SDS011;14278;50.784;4.630;2024-01-15T07:23:33;10.50;;;3.20;;
26654;SDS011;14278;50.784;4.630;2024-01-15T07:25:58;10.93;;;2.67;;
26654;SDS011;14278;50.784;4.630;2024-01-15T07:28:24;5.07;;;3.30;;
26654;SDS011;14278;50.784;4.630;2024-01-15T07:30:50;3.13;;;2.80;;
26654;SDS011;14278;50.784;4.630;2024-01-15T07:33:15;3.13;;;2.60;;
26654;SDS011;14278;50.784;4.630;2024-01-15T07:35:41;6.77;;;3.27;;
26654;SDS011;14278;50.784;4.630;2024-01-15T07:38:07;2.77;;;2.13;;
26654;SDS011;14278;50.784;4.630;2024-01-15T07:40:33;3.37;;;1.77;;
26654;SDS011;14278;50.784;4.630;2024-01-15T07:42:59;2.17;;;1.80;;
26654;SDS011;14278;50.784;4.630;2024-01-15T07:45:24;1.53;;;1.43;;
26654;SDS011;14278;50.784;4.630;2024-01-15T07:47:50;1.83;;;1.73;;
26654;SDS011;14278;50.784;4.630;2024-01-15T07:50:16;1.57;;;1.40;;
26654;SDS011;14278;50.784;4.630;2024-01-15T07:52:41;2.60;;;2.40;;
26654;SDS011;14278;50.784;4.630;2024-01-15T07:55:07;1.70;;;1.53;;
26654;SDS011;14278;50.784;4.630;2024-01-15T07:57:34;0.97;;;0.93;;
26654;SDS011;14278;50.784;4.630;2024-01-15T08:00:01;2.50;;;2.30;;
26654;SDS011;14278;50.784;4.630;2024-01-15T08:02:29;2.70;;;1.83;;
26654;SDS011;14278;50.784;4.630;2024-01-15T08:04:54;3.37;;;1.50;;
26654;SDS011;14278;50.784;4.630;2024-01-15T08:07:20;3.57;;;2.00;;
26654;SDS011;14278;50.784;4.630;2024-01-15T08:09:46;3.00;;;2.80;;
26654;SDS011;14278;50.784;4.630;2024-01-15T08:12:12;2.10;;;1.93;;
26654;SDS011;14278;50.784;4.630;2024-01-15T08:14:38;1.73;;;1.63;;
26654;SDS011;14278;50.784;4.630;2024-01-15T08:17:04;1.10;;;1.10;;
26654;SDS011;14278;50.784;4.630;2024-01-15T08:19:30;1.37;;;1.30;;
26654;SDS011;14278;50.784;4.630;2024-01-15T08:21:56;1.20;;;1.00;;
26654;SDS011;14278;50.784;4.630;2024-01-15T08:24:22;13.40;;;1.47;;
26654;SDS011;14278;50.784;4.630;2024-01-15T08:26:47;1.43;;;1.03;;
26654;SDS011;14278;50.784;4.630;2024-01-15T08:29:13;2.10;;;0.90;;
26654;SDS011;14278;50.784;4.630;2024-01-15T08:31:39;5.90;;;2.63;;
26654;SDS011;14278;50.784;4.630;2024-01-15T08:34:04;3.27;;;1.57;;
26654;SDS011;14278;50.784;4.630;2024-01-15T08:36:30;7.60;;;1.07;;
26654;SDS011;14278;50.784;4.630;2024-01-15T08:38:56;1.27;;;1.00;;
26654;SDS011;14278;50.784;4.630;2024-01-15T08:41:21;3.77;;;0.70;;
26654;SDS011;14278;50.784;4.630;2024-01-15T08:43:48;0.63;;;0.63;;
26654;SDS011;14278;50.784;4.630;2024-01-15T08:46:14;2.37;;;1.33;;
26654;SDS011;14278;50.784;4.630;2024-01-15T08:48:39;1.03;;;0.93;;
26654;SDS011;14278;50.784;4.630;2024-01-15T08:51:05;0.40;;;0.40;;
26654;SDS011;14278;50.784;4.630;2024-01-15T08:53:31;4.33;;;0.90;;
26654;SDS011;14278;50.784;4.630;2024-01-15T08:55:57;1.77;;;1.67;;
26654;SDS011;14278;50.784;4.630;2024-01-15T08:58:23;0.40;;;0.40;;
26654;SDS011;14278;50.784;4.630;2024-01-15T09:00:50;0.53;;;0.53;;
26654;SDS011;14278;50.784;4.630;2024-01-15T09:03:16;0.40;;;0.40;;
26654;SDS011;14278;50.784;4.630;2024-01-15T09:05:42;6.97;;;1.20;;
26654;SDS011;14278;50.784;4.630;2024-01-15T09:08:09;0.90;;;0.90;;
26654;SDS011;14278;50.784;4.630;2024-01-15T09:11:02;0.30;;;0.30;;
26654;SDS011;14278;50.784;4.630;2024-01-15T09:13:34;1.23;;;0.80;;
26654;SDS011;14278;50.784;4.630;2024-01-15T09:16:00;0.40;;;0.40;;
26654;SDS011;14278;50.784;4.630;2024-01-15T09:18:33;1.40;;;1.30;;
26654;SDS011;14278;50.784;4.630;2024-01-15T09:21:04;0.40;;;0.40;;
26654;SDS011;14278;50.784;4.630;2024-01-15T09:23:30;0.53;;;0.53;;
26654;SDS011;14278;50.784;4.630;2024-01-15T09:25:56;3.33;;;1.03;;
26654;SDS011;14278;50.784;4.630;2024-01-15T09:28:21;0.50;;;0.50;;
26654;SDS011;14278;50.784;4.630;2024-01-15T09:30:47;0.50;;;0.50;;
26654;SDS011;14278;50.784;4.630;2024-01-15T09:35:49;0.97;;;0.53;;
26654;SDS011;14278;50.784;4.630;2024-01-15T09:38:14;2.10;;;0.87;;
26654;SDS011;14278;50.784;4.630;2024-01-15T09:40:40;3.00;;;0.73;;
26654;SDS011;14278;50.784;4.630;2024-01-15T09:43:10;0.50;;;0.50;;
26654;SDS011;14278;50.784;4.630;2024-01-15T09:45:37;0.47;;;0.47;;
26654;SDS011;14278;50.784;4.630;2024-01-15T09:48:04;0.50;;;0.50;;
26654;SDS011;14278;50.784;4.630;2024-01-15T09:50:34;0.63;;;0.63;;
26654;SDS011;14278;50.784;4.630;2024-01-15T09:53:08;0.50;;;0.50;;
26654;SDS011;14278;50.784;4.630;2024-01-15T10:01:00;0.80;;;0.80;;
26654;SDS011;14278;50.784;4.630;2024-01-15T10:03:34;1.47;;;0.70;;
26654;SDS011;14278;50.784;4.630;2024-01-15T10:06:00;2.87;;;1.10;;
26654;SDS011;14278;50.784;4.630;2024-01-15T10:08:33;1.13;;;0.73;;
26654;SDS011;14278;50.784;4.630;2024-01-15T10:11:23;2.73;;;1.37;;
26654;SDS011;14278;50.784;4.630;2024-01-15T10:13:49;0.87;;;0.70;;
26654;SDS011;14278;50.784;4.630;2024-01-15T10:16:18;13.77;;;1.07;;
26654;SDS011;14278;50.784;4.630;2024-01-15T10:18:44;0.70;;;0.70;;
26654;SDS011;14278;50.784;4.630;2024-01-15T10:21:10;0.73;;;0.73;;
26654;SDS011;14278;50.784;4.630;2024-01-15T10:23:36;0.70;;;0.70;;
26654;SDS011;14278;50.784;4.630;2024-01-15T10:26:02;1.10;;;1.07;;
26654;SDS011;14278;50.784;4.630;2024-01-15T10:28:28;3.57;;;0.87;;
26654;SDS011;14278;50.784;4.630;2024-01-15T10:30:57;0.60;;;0.60;;
26654;SDS011;14278;50.784;4.630;2024-01-15T10:33:35;1.67;;;0.80;;
26654;SDS011;14278;50.784;4.630;2024-01-15T10:36:00;1.13;;;0.67;;
26654;SDS011;14278;50.784;4.630;2024-01-15T10:38:31;4.17;;;1.17;;
26654;SDS011;14278;50.784;4.630;2024-01-15T10:41:10;2.67;;;0.47;;
26654;SDS011;14278;50.784;4.630;2024-01-15T10:43:36;2.10;;;0.97;;
26654;SDS011;14278;50.784;4.630;2024-01-15T10:46:01;3.07;;;0.63;;
26654;SDS011;14278;50.784;4.630;2024-01-15T10:48:28;2.87;;;0.70;;
26654;SDS011;14278;50.784;4.630;2024-01-15T10:53:35;2.30;;;0.77;;
26654;SDS011;14278;50.784;4.630;2024-01-15T10:58:35;0.93;;;0.57;;
26654;SDS011;14278;50.784;4.630;2024-01-15T11:01:04;0.63;;;0.60;;
26654;SDS011;14278;50.784;4.630;2024-01-15T11:04:09;0.73;;;0.53;;
26654;SDS011;14278;50.784;4.630;2024-01-15T11:12:13;3.47;;;1.07;;
26654;SDS011;14278;50.784;4.630;2024-01-15T11:14:41;1.07;;;0.70;;
26654;SDS011;14278;50.784;4.630;2024-01-15T11:17:11;0.83;;;0.80;;
26654;SDS011;14278;50.784;4.630;2024-01-15T11:19:48;2.40;;;1.20;;
26654;SDS011;14278;50.784;4.630;2024-01-15T11:25:17;0.40;;;0.40;;
26654;SDS011;14278;50.784;4.630;2024-01-15T11:27:49;6.77;;;0.70;;
26654;SDS011;14278;50.784;4.630;2024-01-15T11:30:20;1.13;;;1.03;;
26654;SDS011;14278;50.784;4.630;2024-01-15T11:33:05;2.40;;;0.87;;
26654;SDS011;14278;50.784;4.630;2024-01-15T11:38:07;1.90;;;1.07;;
26654;SDS011;14278;50.784;4.630;2024-01-15T11:42:59;1.77;;;0.97;;
26654;SDS011;14278;50.784;4.630;2024-01-15T11:45:24;0.80;;;0.80;;
26654;SDS011;14278;50.784;4.630;2024-01-15T11:50:44;0.43;;;0.43;;
26654;SDS011;14278;50.784;4.630;2024-01-15T11:55:46;7.73;;;0.80;;
26654;SDS011;14278;50.784;4.630;2024-01-15T11:58:13;1.27;;;1.07;;
26654;SDS011;14278;50.784;4.630;2024-01-15T12:00:42;1.27;;;0.90;;
26654;SDS011;14278;50.784;4.630;2024-01-15T12:03:09;0.57;;;0.57;;
26654;SDS011;14278;50.784;4.630;2024-01-15T12:05:37;1.07;;;0.70;;
26654;SDS011;14278;50.784;4.630;2024-01-15T12:08:11;3.27;;;0.77;;
26654;SDS011;14278;50.784;4.630;2024-01-15T12:10:37;2.97;;;1.23;;
26654;SDS011;14278;50.784;4.630;2024-01-15T12:13:14;1.93;;;0.70;;
26654;SDS011;14278;50.784;4.630;2024-01-15T12:15:42;1.57;;;0.77;;
26654;SDS011;14278;50.784;4.630;2024-01-15T12:18:09;12.23;;;1.23;;
26654;SDS011;14278;50.784;4.630;2024-01-15T12:20:36;1.30;;;0.90;;
26654;SDS011;14278;50.784;4.630;2024-01-15T12:23:02;0.40;;;0.40;;
26654;SDS011;14278;50.784;4.630;2024-01-15T12:25:28;0.50;;;0.50;;
26654;SDS011;14278;50.784;4.630;2024-01-15T12:27:56;1.50;;;0.73;;
26654;SDS011;14278;50.784;4.630;2024-01-15T12:30:22;0.43;;;0.43;;
26654;SDS011;14278;50.784;4.630;2024-01-15T12:32:48;0.53;;;0.53;;
26654;SDS011;14278;50.784;4.630;2024-01-15T12:35:14;0.50;;;0.50;;
26654;SDS011;14278;50.784;4.630;2024-01-15T12:37:40;3.50;;;0.40;;
26654;SDS011;14278;50.784;4.630;2024-01-15T12:40:07;1.40;;;0.73;;
26654;SDS011;14278;50.784;4.630;2024-01-15T12:42:37;0.67;;;0.63;;
26654;SDS011;14278;50.784;4.630;2024-01-15T12:45:06;0.43;;;0.43;;
26654;SDS011;14278;50.784;4.630;2024-01-15T12:47:34;0.50;;;0.50;;
26654;SDS011;14278;50.784;4.630;2024-01-15T12:50:02;0.50;;;0.50;;
26654;SDS011;14278;50.784;4.630;2024-01-15T12:52:31;6.07;;;1.07;;
26654;SDS011;14278;50.784;4.630;2024-01-15T12:55:04;1.33;;;0.90;;
26654;SDS011;14278;50.784;4.630;2024-01-15T12:57:42;0.83;;;0.83;;
26654;SDS011;14278;50.784;4.630;2024-01-15T13:00:30;4.33;;;1.43;;
26654;SDS011;14278;50.784;4.630;2024-01-15T13:02:56;0.60;;;0.50;;
26654;SDS011;14278;50.784;4.630;2024-01-15T13:05:22;2.20;;;1.30;;
26654;SDS011;14278;50.784;4.630;2024-01-15T13:07:48;2.27;;;0.70;;
26654;SDS011;14278;50.784;4.630;2024-01-15T13:10:14;0.40;;;0.40;;
26654;SDS011;14278;50.784;4.630;2024-01-15T13:15:15;7.63;;;0.50;;
26654;SDS011;14278;50.784;4.630;2024-01-15T13:17:42;2.57;;;1.40;;
26654;SDS011;14278;50.784;4.630;2024-01-15T13:20:08;0.50;;;0.50;;
26654;SDS011;14278;50.784;4.630;2024-01-15T13:22:36;0.30;;;0.30;;
26654;SDS011;14278;50.784;4.630;2024-01-15T13:25:04;0.40;;;0.40;;
26654;SDS011;14278;50.784;4.630;2024-01-15T13:27:32;0.63;;;0.63;;
26654;SDS011;14278;50.784;4.630;2024-01-15T13:30:05;2.70;;;1.00;;
26654;SDS011;14278;50.784;4.630;2024-01-15T13:33:09;8.27;;;0.50;;
26654;SDS011;14278;50.784;4.630;2024-01-15T13:35:35;3.10;;;1.40;;
26654;SDS011;14278;50.784;4.630;2024-01-15T13:38:01;0.50;;;0.50;;
26654;SDS011;14278;50.784;4.630;2024-01-15T13:40:27;5.87;;;0.77;;
26654;SDS011;14278;50.784;4.630;2024-01-15T13:42:52;0.60;;;0.60;;
26654;SDS011;14278;50.784;4.630;2024-01-15T13:45:19;1.17;;;0.90;;
26654;SDS011;14278;50.784;4.630;2024-01-15T13:47:45;0.93;;;0.93;;
26654;SDS011;14278;50.784;4.630;2024-01-15T13:50:11;0.67;;;0.67;;
26654;SDS011;14278;50.784;4.630;2024-01-15T13:52:37;9.93;;;1.93;;
26654;SDS011;14278;50.784;4.630;2024-01-15T13:55:03;1.13;;;0.93;;
26654;SDS011;14278;50.784;4.630;2024-01-15T13:57:28;1.20;;;1.13;;
26654;SDS011;14278;50.784;4.630;2024-01-15T13:59:54;3.30;;;1.30;;
26654;SDS011;14278;50.784;4.630;2024-01-15T14:02:20;0.70;;;0.67;;
26654;SDS011;14278;50.784;4.630;2024-01-15T14:04:46;1.73;;;0.60;;
26654;SDS011;14278;50.784;4.630;2024-01-15T14:07:12;0.53;;;0.53;;
26654;SDS011;14278;50.784;4.630;2024-01-15T14:09:37;1.70;;;0.83;;
26654;SDS011;14278;50.784;4.630;2024-01-15T14:12:03;0.20;;;0.20;;
26654;SDS011;14278;50.784;4.630;2024-01-15T14:14:29;0.20;;;0.20;;
26654;SDS011;14278;50.784;4.630;2024-01-15T14:16:55;0.30;;;0.30;;
26654;SDS011;14278;50.784;4.630;2024-01-15T14:19:21;0.37;;;0.33;;
26654;SDS011;14278;50.784;4.630;2024-01-15T14:21:49;0.30;;;0.30;;
26654;SDS011;14278;50.784;4.630;2024-01-15T14:24:15;0.40;;;0.40;;
26654;SDS011;14278;50.784;4.630;2024-01-15T14:26:42;0.30;;;0.30;;
26654;SDS011;14278;50.784;4.630;2024-01-15T14:29:07;0.27;;;0.27;;
26654;SDS011;14278;50.784;4.630;2024-01-15T14:31:34;0.30;;;0.30;;
26654;SDS011;14278;50.784;4.630;2024-01-15T14:33:59;0.70;;;0.50;;
26654;SDS011;14278;50.784;4.630;2024-01-15T14:36:27;0.40;;;0.40;;
26654;SDS011;14278;50.784;4.630;2024-01-15T14:38:53;0.40;;;0.40;;
26654;SDS011;14278;50.784;4.630;2024-01-15T14:41:19;0.40;;;0.40;;
26654;SDS011;14278;50.784;4.630;2024-01-15T14:43:44;0.60;;;0.60;;
26654;SDS011;14278;50.784;4.630;2024-01-15T14:46:10;0.70;;;0.70;;
26654;SDS011;14278;50.784;4.630;2024-01-15T14:48:36;0.73;;;0.50;;
26654;SDS011;14278;50.784;4.630;2024-01-15T14:51:02;0.53;;;0.53;;
26654;SDS011;14278;50.784;4.630;2024-01-15T14:53:28;1.40;;;1.13;;
26654;SDS011;14278;50.784;4.630;2024-01-15T14:55:54;0.70;;;0.70;;
26654;SDS011;14278;50.784;4.630;2024-01-15T14:58:19;0.80;;;0.80;;
26654;SDS011;14278;50.784;4.630;2024-01-15T15:00:45;0.50;;;0.50;;
26654;SDS011;14278;50.784;4.630;2024-01-15T15:03:11;0.30;;;0.30;;
26654;SDS011;14278;50.784;4.630;2024-01-15T15:05:39;0.80;;;0.73;;
26654;SDS011;14278;50.784;4.630;2024-01-15T15:08:04;1.70;;;0.50;;
26654;SDS011;14278;50.784;4.630;2024-01-15T15:10:33;2.80;;;0.73;;
26654;SDS011;14278;50.784;4.630;2024-01-15T15:13:00;0.60;;;0.50;;
26654;SDS011;14278;50.784;4.630;2024-01-15T15:15:29;0.80;;;0.43;;
26654;SDS011;14278;50.784;4.630;2024-01-15T15:17:55;0.70;;;0.70;;
26654;SDS011;14278;50.784;4.630;2024-01-15T15:20:20;0.40;;;0.40;;